sensor_id;sensor_type;location;lat;lon;timestamp;P1;durP1;ratioP1;P2;durP2;ratioP2
40707;SDS011;26392;42.696;23.350;2023-03-23T00:00:03;81.70;;;34.67;;
40707;SDS011;26392;42.696;23.350;2023-03-23T00:02:34;70.70;;;34.33;;
40707;SDS011;26392;42.696;23.350;2023-03-23T00:05:04;74.97;;;35.25;;
40707;SDS011;26392;42.696;23.350;2023-03-23T00:07:32;75.93;;;34.72;;
40707;SDS011;26392;42.696;23.350;2023-03-23T00:09:58;71.25;;;34.72;;
40707;SDS011;26392;42.696;23.350;2023-03-23T00:12:28;75.03;;;34.13;;
40707;SDS011;26392;42.696;23.350;2023-03-23T00:15:05;77.43;;;35.85;;
40707;SDS011;26392;42.696;23.350;2023-03-23T00:17:33;75.53;;;34.43;;
40707;SDS011;26392;42.696;23.350;2023-03-23T00:19:59;80.32;;;36.55;;
40707;SDS011;26392;42.696;23.350;2023-03-23T00:22:26;75.03;;;34.92;;
40707;SDS011;26392;42.696;23.350;2023-03-23T00:24:53;89.07;;;38.85;;
40707;SDS011;26392;42.696;23.350;2023-03-23T00:27:19;88.03;;;40.15;;
40707;SDS011;26392;42.696;23.350;2023-03-23T00:29:47;84.57;;;38.88;;
40707;SDS011;26392;42.696;23.350;2023-03-23T00:32:22;84.95;;;38.85;;
40707;SDS011;26392;42.696;23.350;2023-03-23T00:34:54;89.47;;;41.08;;
40707;SDS011;26392;42.696;23.350;2023-03-23T00:37:20;98.88;;;41.88;;
40707;SDS011;26392;42.696;23.350;2023-03-23T00:39:46;104.63;;;44.00;;
40707;SDS011;26392;42.696;23.350;2023-03-23T00:42:12;100.70;;;46.22;;
40707;SDS011;26392;42.696;23.350;2023-03-23T00:44:39;106.80;;;44.67;;
40707;SDS011;26392;42.696;23.350;2023-03-23T00:47:05;105.63;;;43.95;;
40707;SDS011;26392;42.696;23.350;2023-03-23T00:49:32;118.55;;;49.78;;
40707;SDS011;26392;42.696;23.350;2023-03-23T00:52:00;112.90;;;48.70;;
40707;SDS011;26392;42.696;23.350;2023-03-23T00:54:26;108.32;;;45.95;;
40707;SDS011;26392;42.696;23.350;2023-03-23T00:56:52;117.47;;;46.13;;
40707;SDS011;26392;42.696;23.350;2023-03-23T00:59:18;109.35;;;45.28;;
40707;SDS011;26392;42.696;23.350;2023-03-23T01:01:44;102.28;;;44.50;;
40707;SDS011;26392;42.696;23.350;2023-03-23T01:04:10;101.65;;;42.25;;
40707;SDS011;26392;42.696;23.350;2023-03-23T01:06:37;106.10;;;41.88;;
40707;SDS011;26392;42.696;23.350;2023-03-23T01:09:08;102.28;;;42.97;;
40707;SDS011;26392;42.696;23.350;2023-03-23T01:11:35;86.45;;;39.28;;
40707;SDS011;26392;42.696;23.350;2023-03-23T01:14:02;85.18;;;38.58;;
40707;SDS011;26392;42.696;23.350;2023-03-23T01:16:28;91.05;;;39.40;;
40707;SDS011;26392;42.696;23.350;2023-03-23T01:18:53;80.63;;;37.15;;
40707;SDS011;26392;42.696;23.350;2023-03-23T01:21:20;95.28;;;40.90;;
40707;SDS011;26392;42.696;23.350;2023-03-23T01:23:46;95.43;;;40.53;;
40707;SDS011;26392;42.696;23.350;2023-03-23T01:26:14;106.07;;;41.47;;
40707;SDS011;26392;42.696;23.350;2023-03-23T01:28:44;108.63;;;39.95;;
40707;SDS011;26392;42.696;23.350;2023-03-23T01:31:11;98.47;;;40.92;;
40707;SDS011;26392;42.696;23.350;2023-03-23T01:33:39;98.43;;;39.08;;
40707;SDS011;26392;42.696;23.350;2023-03-23T01:36:06;111.63;;;40.40;;
40707;SDS011;26392;42.696;23.350;2023-03-23T01:38:34;92.28;;;36.80;;
40707;SDS011;26392;42.696;23.350;2023-03-23T01:41:00;96.55;;;38.05;;
40707;SDS011;26392;42.696;23.350;2023-03-23T01:43:26;87.93;;;37.00;;
40707;SDS011;26392;42.696;23.350;2023-03-23T01:45:52;86.93;;;35.47;;
40707;SDS011;26392;42.696;23.350;2023-03-23T01:48:19;91.10;;;34.83;;
40707;SDS011;26392;42.696;23.350;2023-03-23T01:53:37;85.22;;;33.83;;
40707;SDS011;26392;42.696;23.350;2023-03-23T01:56:23;86.43;;;34.13;;
40707;SDS011;26392;42.696;23.350;2023-03-23T01:58:54;87.43;;;35.35;;
40707;SDS011;26392;42.696;23.350;2023-03-23T02:01:20;77.43;;;35.30;;
40707;SDS011;26392;42.696;23.350;2023-03-23T02:03:52;80.60;;;35.60;;
40707;SDS011;26392;42.696;23.350;2023-03-23T02:06:21;79.57;;;34.65;;
40707;SDS011;26392;42.696;23.350;2023-03-23T02:08:48;80.80;;;35.60;;
40707;SDS011;26392;42.696;23.350;2023-03-23T02:11:15;83.15;;;35.53;;
40707;SDS011;26392;42.696;23.350;2023-03-23T02:13:42;82.20;;;34.72;;
40707;SDS011;26392;42.696;23.350;2023-03-23T02:39:17;87.60;;;37.92;;
40707;SDS011;26392;42.696;23.350;2023-03-23T02:41:45;86.20;;;35.90;;
40707;SDS011;26392;42.696;23.350;2023-03-23T02:44:16;75.43;;;27.80;;
40707;SDS011;26392;42.696;23.350;2023-03-23T02:46:43;65.65;;;27.63;;
40707;SDS011;26392;42.696;23.350;2023-03-23T02:49:09;62.78;;;27.40;;
40707;SDS011;26392;42.696;23.350;2023-03-23T02:51:40;77.85;;;30.00;;
40707;SDS011;26392;42.696;23.350;2023-03-23T02:54:09;63.25;;;25.00;;
40707;SDS011;26392;42.696;23.350;2023-03-23T02:56:36;49.38;;;23.02;;
40707;SDS011;26392;42.696;23.350;2023-03-23T02:59:04;45.45;;;20.25;;
40707;SDS011;26392;42.696;23.350;2023-03-23T03:04:00;45.05;;;19.50;;
40707;SDS011;26392;42.696;23.350;2023-03-23T03:06:33;42.15;;;18.70;;
40707;SDS011;26392;42.696;23.350;2023-03-23T03:11:31;37.25;;;16.77;;
40707;SDS011;26392;42.696;23.350;2023-03-23T03:14:04;34.88;;;16.25;;
40707;SDS011;26392;42.696;23.350;2023-03-23T03:21:53;38.53;;;16.65;;
40707;SDS011;26392;42.696;23.350;2023-03-23T03:24:23;36.83;;;17.98;;
40707;SDS011;26392;42.696;23.350;2023-03-23T03:26:51;32.67;;;17.05;;
40707;SDS011;26392;42.696;23.350;2023-03-23T03:29:20;39.00;;;17.45;;
40707;SDS011;26392;42.696;23.350;2023-03-23T03:31:49;39.05;;;17.67;;
40707;SDS011;26392;42.696;23.350;2023-03-23T03:34:20;32.75;;;16.40;;
40707;SDS011;26392;42.696;23.350;2023-03-23T03:36:47;43.67;;;19.30;;
40707;SDS011;26392;42.696;23.350;2023-03-23T03:39:15;36.95;;;18.00;;
40707;SDS011;26392;42.696;23.350;2023-03-23T03:41:42;40.75;;;20.23;;
40707;SDS011;26392;42.696;23.350;2023-03-23T03:44:08;39.78;;;18.75;;
40707;SDS011;26392;42.696;23.350;2023-03-23T03:46:34;41.05;;;18.20;;
40707;SDS011;26392;42.696;23.350;2023-03-23T03:49:01;42.17;;;19.83;;
40707;SDS011;26392;42.696;23.350;2023-03-23T03:51:29;37.13;;;17.67;;
40707;SDS011;26392;42.696;23.350;2023-03-23T03:53:55;42.17;;;18.17;;
40707;SDS011;26392;42.696;23.350;2023-03-23T03:56:22;37.25;;;18.23;;
40707;SDS011;26392;42.696;23.350;2023-03-23T03:58:48;34.22;;;17.88;;
40707;SDS011;26392;42.696;23.350;2023-03-23T04:01:15;39.78;;;18.10;;
40707;SDS011;26392;42.696;23.350;2023-03-23T04:03:41;34.55;;;16.83;;
40707;SDS011;26392;42.696;23.350;2023-03-23T04:06:07;32.08;;;16.45;;
40707;SDS011;26392;42.696;23.350;2023-03-23T04:08:34;35.83;;;15.65;;
40707;SDS011;26392;42.696;23.350;2023-03-23T04:11:02;32.63;;;16.13;;
40707;SDS011;26392;42.696;23.350;2023-03-23T04:13:29;33.70;;;15.25;;
40707;SDS011;26392;42.696;23.350;2023-03-23T04:15:55;30.77;;;15.45;;
40707;SDS011;26392;42.696;23.350;2023-03-23T04:18:20;33.22;;;15.50;;
40707;SDS011;26392;42.696;23.350;2023-03-23T04:20:47;32.80;;;15.43;;
40707;SDS011;26392;42.696;23.350;2023-03-23T04:23:17;33.58;;;17.23;;
40707;SDS011;26392;42.696;23.350;2023-03-23T04:25:47;37.47;;;16.70;;
40707;SDS011;26392;42.696;23.350;2023-03-23T04:28:14;34.28;;;16.73;;
40707;SDS011;26392;42.696;23.350;2023-03-23T04:30:42;39.05;;;16.60;;
40707;SDS011;26392;42.696;23.350;2023-03-23T04:33:08;37.15;;;16.60;;
40707;SDS011;26392;42.696;23.350;2023-03-23T04:35:39;34.47;;;15.98;;
40707;SDS011;26392;42.696;23.350;2023-03-23T04:38:05;36.38;;;16.52;;
40707;SDS011;26392;42.696;23.350;2023-03-23T04:40:32;37.95;;;16.98;;
40707;SDS011;26392;42.696;23.350;2023-03-23T04:43:00;33.53;;;17.42;;
40707;SDS011;26392;42.696;23.350;2023-03-23T04:45:30;38.83;;;18.23;;
40707;SDS011;26392;42.696;23.350;2023-03-23T04:47:56;35.92;;;16.23;;
40707;SDS011;26392;42.696;23.350;2023-03-23T04:50:23;37.20;;;17.33;;
40707;SDS011;26392;42.696;23.350;2023-03-23T04:52:55;39.90;;;16.30;;
40707;SDS011;26392;42.696;23.350;2023-03-23T04:55:23;34.83;;;16.63;;
40707;SDS011;26392;42.696;23.350;2023-03-23T04:57:49;35.83;;;17.52;;
40707;SDS011;26392;42.696;23.350;2023-03-23T05:00:15;33.00;;;16.80;;
40707;SDS011;26392;42.696;23.350;2023-03-23T05:02:45;41.08;;;17.05;;
40707;SDS011;26392;42.696;23.350;2023-03-23T05:05:17;36.53;;;18.50;;
40707;SDS011;26392;42.696;23.350;2023-03-23T05:07:44;34.72;;;18.08;;
40707;SDS011;26392;42.696;23.350;2023-03-23T05:10:10;42.63;;;18.77;;
40707;SDS011;26392;42.696;23.350;2023-03-23T05:12:37;35.97;;;18.00;;
40707;SDS011;26392;42.696;23.350;2023-03-23T05:15:03;42.08;;;19.33;;
40707;SDS011;26392;42.696;23.350;2023-03-23T05:17:29;41.28;;;19.77;;
40707;SDS011;26392;42.696;23.350;2023-03-23T05:19:57;37.30;;;18.92;;
40707;SDS011;26392;42.696;23.350;2023-03-23T05:22:23;43.88;;;23.73;;
40707;SDS011;26392;42.696;23.350;2023-03-23T05:24:51;58.75;;;26.08;;
40707;SDS011;26392;42.696;23.350;2023-03-23T05:27:17;55.97;;;23.88;;
40707;SDS011;26392;42.696;23.350;2023-03-23T05:29:44;51.35;;;23.60;;
40707;SDS011;26392;42.696;23.350;2023-03-23T05:32:13;54.13;;;26.27;;
40707;SDS011;26392;42.696;23.350;2023-03-23T05:34:39;49.70;;;23.85;;
40707;SDS011;26392;42.696;23.350;2023-03-23T05:37:05;53.55;;;23.40;;
40707;SDS011;26392;42.696;23.350;2023-03-23T05:39:31;52.75;;;24.95;;
40707;SDS011;26392;42.696;23.350;2023-03-23T05:41:57;50.20;;;25.67;;
40707;SDS011;26392;42.696;23.350;2023-03-23T05:44:23;52.83;;;25.10;;
40707;SDS011;26392;42.696;23.350;2023-03-23T05:46:49;51.15;;;24.58;;
40707;SDS011;26392;42.696;23.350;2023-03-23T05:49:15;53.08;;;25.30;;
40707;SDS011;26392;42.696;23.350;2023-03-23T05:51:41;51.20;;;24.58;;
40707;SDS011;26392;42.696;23.350;2023-03-23T05:54:07;54.20;;;24.80;;
40707;SDS011;26392;42.696;23.350;2023-03-23T05:56:34;47.15;;;25.55;;
40707;SDS011;26392;42.696;23.350;2023-03-23T05:59:00;49.00;;;24.42;;
40707;SDS011;26392;42.696;23.350;2023-03-23T06:01:26;47.78;;;23.13;;
40707;SDS011;26392;42.696;23.350;2023-03-23T06:03:51;51.08;;;23.48;;
40707;SDS011;26392;42.696;23.350;2023-03-23T06:06:19;45.35;;;22.73;;
40707;SDS011;26392;42.696;23.350;2023-03-23T06:08:45;48.80;;;22.70;;
40707;SDS011;26392;42.696;23.350;2023-03-23T06:11:11;51.28;;;24.73;;
40707;SDS011;26392;42.696;23.350;2023-03-23T06:13:37;44.78;;;23.00;;
40707;SDS011;26392;42.696;23.350;2023-03-23T06:16:02;50.47;;;24.38;;
40707;SDS011;26392;42.696;23.350;2023-03-23T06:18:29;56.00;;;25.73;;
40707;SDS011;26392;42.696;23.350;2023-03-23T06:20:56;44.17;;;23.52;;
40707;SDS011;26392;42.696;23.350;2023-03-23T06:23:22;66.13;;;29.23;;
40707;SDS011;26392;42.696;23.350;2023-03-23T06:25:48;47.97;;;23.27;;
40707;SDS011;26392;42.696;23.350;2023-03-23T06:28:14;50.72;;;23.83;;
40707;SDS011;26392;42.696;23.350;2023-03-23T06:30:40;51.95;;;25.10;;
40707;SDS011;26392;42.696;23.350;2023-03-23T06:33:05;49.17;;;24.42;;
40707;SDS011;26392;42.696;23.350;2023-03-23T06:35:34;56.72;;;26.25;;
40707;SDS011;26392;42.696;23.350;2023-03-23T06:38:00;61.50;;;26.85;;
40707;SDS011;26392;42.696;23.350;2023-03-23T06:40:26;54.75;;;26.13;;
40707;SDS011;26392;42.696;23.350;2023-03-23T06:42:53;56.80;;;26.27;;
40707;SDS011;26392;42.696;23.350;2023-03-23T06:45:19;54.65;;;25.10;;
40707;SDS011;26392;42.696;23.350;2023-03-23T06:47:45;51.38;;;25.42;;
40707;SDS011;26392;42.696;23.350;2023-03-23T06:50:13;50.08;;;23.77;;
40707;SDS011;26392;42.696;23.350;2023-03-23T06:52:40;51.58;;;24.95;;
40707;SDS011;26392;42.696;23.350;2023-03-23T06:55:06;50.92;;;23.60;;
40707;SDS011;26392;42.696;23.350;2023-03-23T06:57:31;46.53;;;25.33;;
40707;SDS011;26392;42.696;23.350;2023-03-23T06:59:57;47.10;;;23.85;;
40707;SDS011;26392;42.696;23.350;2023-03-23T07:02:22;54.33;;;23.88;;
40707;SDS011;26392;42.696;23.350;2023-03-23T07:04:48;44.65;;;22.98;;
40707;SDS011;26392;42.696;23.350;2023-03-23T07:07:14;49.53;;;25.08;;
40707;SDS011;26392;42.696;23.350;2023-03-23T07:09:43;56.28;;;24.83;;
40707;SDS011;26392;42.696;23.350;2023-03-23T07:12:08;49.03;;;25.42;;
40707;SDS011;26392;42.696;23.350;2023-03-23T07:14:34;45.83;;;23.52;;
40707;SDS011;26392;42.696;23.350;2023-03-23T07:17:00;46.67;;;24.52;;
40707;SDS011;26392;42.696;23.350;2023-03-23T07:19:27;49.15;;;23.48;;
40707;SDS011;26392;42.696;23.350;2023-03-23T07:21:52;50.58;;;24.73;;
40707;SDS011;26392;42.696;23.350;2023-03-23T07:24:18;46.47;;;23.45;;
40707;SDS011;26392;42.696;23.350;2023-03-23T07:26:44;47.40;;;24.80;;
40707;SDS011;26392;42.696;23.350;2023-03-23T07:29:09;48.72;;;25.92;;
40707;SDS011;26392;42.696;23.350;2023-03-23T07:31:35;53.38;;;24.85;;
40707;SDS011;26392;42.696;23.350;2023-03-23T07:34:01;46.83;;;23.25;;
40707;SDS011;26392;42.696;23.350;2023-03-23T07:36:28;47.35;;;22.90;;
40707;SDS011;26392;42.696;23.350;2023-03-23T07:38:53;42.67;;;23.35;;
40707;SDS011;26392;42.696;23.350;2023-03-23T07:41:20;44.05;;;22.85;;
40707;SDS011;26392;42.696;23.350;2023-03-23T07:43:45;49.17;;;23.10;;
40707;SDS011;26392;42.696;23.350;2023-03-23T07:46:11;39.97;;;21.30;;
40707;SDS011;26392;42.696;23.350;2023-03-23T07:48:36;43.85;;;22.15;;
40707;SDS011;26392;42.696;23.350;2023-03-23T07:51:02;47.53;;;24.65;;
40707;SDS011;26392;42.696;23.350;2023-03-23T07:53:28;43.35;;;23.42;;
40707;SDS011;26392;42.696;23.350;2023-03-23T07:55:54;43.40;;;21.70;;
40707;SDS011;26392;42.696;23.350;2023-03-23T07:58:19;45.10;;;23.40;;
40707;SDS011;26392;42.696;23.350;2023-03-23T08:00:48;46.60;;;24.05;;
40707;SDS011;26392;42.696;23.350;2023-03-23T08:03:14;49.05;;;25.33;;
40707;SDS011;26392;42.696;23.350;2023-03-23T08:05:40;46.78;;;24.27;;
40707;SDS011;26392;42.696;23.350;2023-03-23T08:08:08;45.15;;;22.45;;
40707;SDS011;26392;42.696;23.350;2023-03-23T08:10:34;45.15;;;22.13;;
40707;SDS011;26392;42.696;23.350;2023-03-23T08:13:00;41.03;;;23.42;;
40707;SDS011;26392;42.696;23.350;2023-03-23T08:15:26;54.17;;;25.02;;
40707;SDS011;26392;42.696;23.350;2023-03-23T08:17:52;45.45;;;24.23;;
40707;SDS011;26392;42.696;23.350;2023-03-23T08:20:18;53.88;;;26.83;;
40707;SDS011;26392;42.696;23.350;2023-03-23T08:22:45;46.25;;;23.60;;
40707;SDS011;26392;42.696;23.350;2023-03-23T08:25:15;44.05;;;22.25;;
40707;SDS011;26392;42.696;23.350;2023-03-23T08:27:42;44.47;;;21.77;;
40707;SDS011;26392;42.696;23.350;2023-03-23T08:30:08;42.70;;;21.45;;
40707;SDS011;26392;42.696;23.350;2023-03-23T08:32:36;50.08;;;21.42;;
40707;SDS011;26392;42.696;23.350;2023-03-23T08:35:02;40.75;;;20.75;;
40707;SDS011;26392;42.696;23.350;2023-03-23T08:37:28;44.20;;;23.02;;
40707;SDS011;26392;42.696;23.350;2023-03-23T08:39:54;44.95;;;21.42;;
40707;SDS011;26392;42.696;23.350;2023-03-23T08:42:22;41.13;;;18.67;;
40707;SDS011;26392;42.696;23.350;2023-03-23T08:44:49;36.42;;;20.05;;
40707;SDS011;26392;42.696;23.350;2023-03-23T08:47:15;41.90;;;21.00;;
40707;SDS011;26392;42.696;23.350;2023-03-23T08:49:41;45.83;;;21.15;;
40707;SDS011;26392;42.696;23.350;2023-03-23T08:52:07;50.17;;;20.85;;
40707;SDS011;26392;42.696;23.350;2023-03-23T08:54:34;33.95;;;19.52;;
40707;SDS011;26392;42.696;23.350;2023-03-23T08:57:00;28.63;;;16.58;;
40707;SDS011;26392;42.696;23.350;2023-03-23T08:59:26;33.03;;;16.25;;
40707;SDS011;26392;42.696;23.350;2023-03-23T09:01:53;28.48;;;15.63;;
40707;SDS011;26392;42.696;23.350;2023-03-23T09:04:18;25.95;;;13.35;;
40707;SDS011;26392;42.696;23.350;2023-03-23T09:06:44;17.85;;;9.60;;
40707;SDS011;26392;42.696;23.350;2023-03-23T09:09:10;14.50;;;7.90;;
40707;SDS011;26392;42.696;23.350;2023-03-23T09:11:36;16.05;;;8.65;;
40707;SDS011;26392;42.696;23.350;2023-03-23T09:14:03;14.10;;;7.78;;
40707;SDS011;26392;42.696;23.350;2023-03-23T09:16:30;15.23;;;7.22;;
40707;SDS011;26392;42.696;23.350;2023-03-23T09:18:56;13.38;;;7.85;;
40707;SDS011;26392;42.696;23.350;2023-03-23T09:21:22;11.90;;;7.28;;
40707;SDS011;26392;42.696;23.350;2023-03-23T09:23:48;16.30;;;9.43;;
40707;SDS011;26392;42.696;23.350;2023-03-23T09:26:14;22.58;;;8.93;;
40707;SDS011;26392;42.696;23.350;2023-03-23T09:28:40;9.60;;;6.15;;
40707;SDS011;26392;42.696;23.350;2023-03-23T09:31:06;10.35;;;6.32;;
40707;SDS011;26392;42.696;23.350;2023-03-23T09:33:31;12.30;;;6.05;;
40707;SDS011;26392;42.696;23.350;2023-03-23T09:36:00;13.85;;;7.57;;
40707;SDS011;26392;42.696;23.350;2023-03-23T09:38:28;12.40;;;7.28;;
40707;SDS011;26392;42.696;23.350;2023-03-23T09:41:03;10.65;;;7.00;;
40707;SDS011;26392;42.696;23.350;2023-03-23T09:49:12;16.67;;;6.50;;
40707;SDS011;26392;42.696;23.350;2023-03-23T09:54:18;12.68;;;7.38;;
40707;SDS011;26392;42.696;23.350;2023-03-23T09:57:05;15.02;;;7.10;;
40707;SDS011;26392;42.696;23.350;2023-03-23T09:59:39;10.50;;;6.35;;
40707;SDS011;26392;42.696;23.350;2023-03-23T10:02:13;9.90;;;6.40;;
40707;SDS011;26392;42.696;23.350;2023-03-23T10:04:52;10.27;;;5.90;;
40707;SDS011;26392;42.696;23.350;2023-03-23T10:07:21;15.45;;;7.38;;
40707;SDS011;26392;42.696;23.350;2023-03-23T10:09:54;10.57;;;6.35;;
40707;SDS011;26392;42.696;23.350;2023-03-23T10:12:27;13.02;;;6.95;;
40707;SDS011;26392;42.696;23.350;2023-03-23T10:15:26;14.65;;;7.85;;
40707;SDS011;26392;42.696;23.350;2023-03-23T10:17:57;16.38;;;8.55;;
40707;SDS011;26392;42.696;23.350;2023-03-23T10:25:56;14.70;;;8.13;;
40707;SDS011;26392;42.696;23.350;2023-03-23T10:28:40;14.63;;;8.10;;
40707;SDS011;26392;42.696;23.350;2023-03-23T10:31:10;10.57;;;6.72;;
40707;SDS011;26392;42.696;23.350;2023-03-23T10:38:41;12.50;;;7.10;;
40707;SDS011;26392;42.696;23.350;2023-03-23T10:41:11;11.93;;;7.88;;
40707;SDS011;26392;42.696;23.350;2023-03-23T10:43:39;13.95;;;7.70;;
40707;SDS011;26392;42.696;23.350;2023-03-23T10:49:06;11.15;;;7.03;;
40707;SDS011;26392;42.696;23.350;2023-03-23T10:51:38;16.13;;;8.45;;
40707;SDS011;26392;42.696;23.350;2023-03-23T10:54:09;10.27;;;6.90;;
40707;SDS011;26392;42.696;23.350;2023-03-23T10:56:37;11.73;;;6.65;;
40707;SDS011;26392;42.696;23.350;2023-03-23T10:59:15;11.68;;;6.75;;
40707;SDS011;26392;42.696;23.350;2023-03-23T11:01:47;14.20;;;6.95;;
40707;SDS011;26392;42.696;23.350;2023-03-23T11:04:15;12.30;;;6.90;;
40707;SDS011;26392;42.696;23.350;2023-03-23T11:06:45;14.50;;;7.75;;
40707;SDS011;26392;42.696;23.350;2023-03-23T11:09:17;11.50;;;6.63;;
40707;SDS011;26392;42.696;23.350;2023-03-23T11:11:48;12.25;;;6.90;;
40707;SDS011;26392;42.696;23.350;2023-03-23T11:16:55;10.77;;;6.93;;
40707;SDS011;26392;42.696;23.350;2023-03-23T11:19:27;10.70;;;6.82;;
40707;SDS011;26392;42.696;23.350;2023-03-23T11:24:34;14.95;;;7.22;;
40707;SDS011;26392;42.696;23.350;2023-03-23T11:27:02;12.00;;;7.88;;
40707;SDS011;26392;42.696;23.350;2023-03-23T11:29:32;12.18;;;7.68;;
40707;SDS011;26392;42.696;23.350;2023-03-23T11:34:25;12.93;;;6.47;;
40707;SDS011;26392;42.696;23.350;2023-03-23T11:37:00;11.13;;;6.72;;
40707;SDS011;26392;42.696;23.350;2023-03-23T11:42:19;9.88;;;6.75;;
40707;SDS011;26392;42.696;23.350;2023-03-23T11:44:53;13.45;;;6.65;;
40707;SDS011;26392;42.696;23.350;2023-03-23T11:47:36;10.30;;;6.55;;
40707;SDS011;26392;42.696;23.350;2023-03-23T11:56:15;9.98;;;6.25;;
40707;SDS011;26392;42.696;23.350;2023-03-23T11:58:16;12.57;;;6.20;;
40707;SDS011;26392;42.696;23.350;2023-03-23T12:00:46;10.93;;;6.60;;
40707;SDS011;26392;42.696;23.350;2023-03-23T12:03:43;13.52;;;6.15;;
40707;SDS011;26392;42.696;23.350;2023-03-23T12:10:11;11.35;;;6.88;;
40707;SDS011;26392;42.696;23.350;2023-03-23T12:12:56;10.77;;;6.57;;
40707;SDS011;26392;42.696;23.350;2023-03-23T12:15:22;10.95;;;6.47;;
40707;SDS011;26392;42.696;23.350;2023-03-23T12:20:53;11.30;;;6.90;;
40707;SDS011;26392;42.696;23.350;2023-03-23T12:23:25;10.82;;;6.63;;
40707;SDS011;26392;42.696;23.350;2023-03-23T12:26:34;10.23;;;6.32;;
40707;SDS011;26392;42.696;23.350;2023-03-23T12:34:53;12.00;;;6.95;;
40707;SDS011;26392;42.696;23.350;2023-03-23T12:48:39;11.75;;;6.55;;
40707;SDS011;26392;42.696;23.350;2023-03-23T12:56:51;11.50;;;5.70;;
40707;SDS011;26392;42.696;23.350;2023-03-23T12:59:26;13.27;;;6.60;;
40707;SDS011;26392;42.696;23.350;2023-03-23T13:02:13;11.55;;;6.10;;
40707;SDS011;26392;42.696;23.350;2023-03-23T13:04:48;12.68;;;5.82;;
40707;SDS011;26392;42.696;23.350;2023-03-23T13:07:18;8.98;;;5.50;;
40707;SDS011;26392;42.696;23.350;2023-03-23T13:12:24;10.15;;;6.20;;
40707;SDS011;26392;42.696;23.350;2023-03-23T13:15:39;9.90;;;6.28;;
40707;SDS011;26392;42.696;23.350;2023-03-23T13:17:58;8.80;;;5.57;;
40707;SDS011;26392;42.696;23.350;2023-03-23T13:23:50;15.27;;;6.68;;
40707;SDS011;26392;42.696;23.350;2023-03-23T13:26:21;14.38;;;6.60;;
40707;SDS011;26392;42.696;23.350;2023-03-23T13:33:52;11.85;;;6.30;;
40707;SDS011;26392;42.696;23.350;2023-03-23T13:37:05;8.55;;;5.25;;
40707;SDS011;26392;42.696;23.350;2023-03-23T13:42:47;8.32;;;4.80;;
40707;SDS011;26392;42.696;23.350;2023-03-23T13:49:47;10.48;;;6.15;;
40707;SDS011;26392;42.696;23.350;2023-03-23T13:52:36;8.40;;;6.03;;
40707;SDS011;26392;42.696;23.350;2023-03-23T14:10:55;8.13;;;5.22;;
40707;SDS011;26392;42.696;23.350;2023-03-23T14:16:44;8.55;;;5.63;;
40707;SDS011;26392;42.696;23.350;2023-03-23T14:21:54;9.57;;;6.03;;
40707;SDS011;26392;42.696;23.350;2023-03-23T14:24:25;10.43;;;6.43;;
40707;SDS011;26392;42.696;23.350;2023-03-23T14:27:01;10.82;;;6.53;;
40707;SDS011;26392;42.696;23.350;2023-03-23T14:29:33;12.68;;;6.55;;
40707;SDS011;26392;42.696;23.350;2023-03-23T14:31:59;12.77;;;6.90;;
40707;SDS011;26392;42.696;23.350;2023-03-23T14:34:27;10.63;;;5.85;;
40707;SDS011;26392;42.696;23.350;2023-03-23T14:36:56;8.43;;;5.72;;
40707;SDS011;26392;42.696;23.350;2023-03-23T14:39:27;12.52;;;6.20;;
40707;SDS011;26392;42.696;23.350;2023-03-23T14:41:55;9.82;;;5.22;;
40707;SDS011;26392;42.696;23.350;2023-03-23T14:44:28;11.32;;;5.68;;
40707;SDS011;26392;42.696;23.350;2023-03-23T14:46:55;8.27;;;4.95;;
40707;SDS011;26392;42.696;23.350;2023-03-23T14:49:34;8.77;;;5.28;;
40707;SDS011;26392;42.696;23.350;2023-03-23T14:52:08;8.52;;;6.05;;
40707;SDS011;26392;42.696;23.350;2023-03-23T14:54:38;11.57;;;5.80;;
40707;SDS011;26392;42.696;23.350;2023-03-23T14:59:43;12.10;;;6.20;;
40707;SDS011;26392;42.696;23.350;2023-03-23T15:02:21;10.80;;;6.28;;
40707;SDS011;26392;42.696;23.350;2023-03-23T15:05:02;8.20;;;5.57;;
40707;SDS011;26392;42.696;23.350;2023-03-23T15:07:36;9.75;;;5.55;;
40707;SDS011;26392;42.696;23.350;2023-03-23T15:10:07;8.43;;;5.40;;
40707;SDS011;26392;42.696;23.350;2023-03-23T15:12:36;8.60;;;5.70;;
40707;SDS011;26392;42.696;23.350;2023-03-23T15:15:03;12.35;;;6.45;;
40707;SDS011;26392;42.696;23.350;2023-03-23T15:17:35;12.27;;;6.97;;
40707;SDS011;26392;42.696;23.350;2023-03-23T15:20:09;10.85;;;6.28;;
40707;SDS011;26392;42.696;23.350;2023-03-23T15:22:45;8.93;;;5.78;;
40707;SDS011;26392;42.696;23.350;2023-03-23T15:27:44;15.13;;;6.07;;
40707;SDS011;26392;42.696;23.350;2023-03-23T15:32:55;11.75;;;5.88;;
40707;SDS011;26392;42.696;23.350;2023-03-23T15:35:51;9.48;;;5.97;;
40707;SDS011;26392;42.696;23.350;2023-03-23T15:38:22;11.85;;;5.68;;
40707;SDS011;26392;42.696;23.350;2023-03-23T15:40:55;11.60;;;7.88;;
40707;SDS011;26392;42.696;23.350;2023-03-23T15:43:26;14.35;;;6.82;;
40707;SDS011;26392;42.696;23.350;2023-03-23T15:48:26;15.18;;;6.10;;
40707;SDS011;26392;42.696;23.350;2023-03-23T15:50:55;10.00;;;6.03;;
40707;SDS011;26392;42.696;23.350;2023-03-23T15:56:04;11.45;;;5.88;;
40707;SDS011;26392;42.696;23.350;2023-03-23T15:58:32;8.82;;;5.43;;
40707;SDS011;26392;42.696;23.350;2023-03-23T16:00:59;10.52;;;6.15;;
40707;SDS011;26392;42.696;23.350;2023-03-23T16:04:15;9.50;;;5.97;;
40707;SDS011;26392;42.696;23.350;2023-03-23T16:06:25;10.90;;;6.60;;
40707;SDS011;26392;42.696;23.350;2023-03-23T16:08:55;14.02;;;6.63;;
40707;SDS011;26392;42.696;23.350;2023-03-23T16:11:21;13.38;;;6.35;;
40707;SDS011;26392;42.696;23.350;2023-03-23T16:13:48;7.65;;;5.50;;
40707;SDS011;26392;42.696;23.350;2023-03-23T16:16:16;9.75;;;5.80;;
40707;SDS011;26392;42.696;23.350;2023-03-23T16:18:43;17.17;;;6.95;;
40707;SDS011;26392;42.696;23.350;2023-03-23T16:21:09;12.32;;;7.20;;
40707;SDS011;26392;42.696;23.350;2023-03-23T16:23:34;11.52;;;6.18;;
40707;SDS011;26392;42.696;23.350;2023-03-23T16:26:00;12.27;;;6.93;;
40707;SDS011;26392;42.696;23.350;2023-03-23T16:28:26;11.15;;;6.13;;
40707;SDS011;26392;42.696;23.350;2023-03-23T16:30:51;15.82;;;6.95;;
40707;SDS011;26392;42.696;23.350;2023-03-23T16:33:16;14.55;;;6.20;;
40707;SDS011;26392;42.696;23.350;2023-03-23T16:35:42;21.10;;;7.25;;
40707;SDS011;26392;42.696;23.350;2023-03-23T16:38:10;17.40;;;7.82;;
40707;SDS011;26392;42.696;23.350;2023-03-23T16:40:40;16.30;;;7.93;;
40707;SDS011;26392;42.696;23.350;2023-03-23T16:43:09;11.73;;;7.00;;
40707;SDS011;26392;42.696;23.350;2023-03-23T16:45:36;18.45;;;7.95;;
40707;SDS011;26392;42.696;23.350;2023-03-23T16:48:03;19.90;;;8.63;;
40707;SDS011;26392;42.696;23.350;2023-03-23T16:50:31;19.98;;;8.73;;
40707;SDS011;26392;42.696;23.350;2023-03-23T16:52:57;15.57;;;8.73;;
40707;SDS011;26392;42.696;23.350;2023-03-23T16:55:23;12.98;;;7.38;;
40707;SDS011;26392;42.696;23.350;2023-03-23T16:57:50;16.92;;;7.97;;
40707;SDS011;26392;42.696;23.350;2023-03-23T17:00:16;18.73;;;9.00;;